createdAt,value
2018-08-28T00:02:22.798Z,54.10
2018-08-28T00:04:50.105Z,54.20
2018-08-28T00:07:17.290Z,54.20
2018-08-28T00:09:44.522Z,54.20
2018-08-28T00:12:11.759Z,54.20
2018-08-28T00:14:38.980Z,54.40
2018-08-28T00:17:06.257Z,54.20
2018-08-28T00:19:33.489Z,54.20
2018-08-28T00:22:00.724Z,54.50
2018-08-28T00:24:27.958Z,54.40
2018-08-28T00:26:55.204Z,54.40
2018-08-28T00:29:22.449Z,54.30
2018-08-28T00:31:49.706Z,54.40
2018-08-28T00:34:16.930Z,54.40
2018-08-28T00:36:44.149Z,54.40
2018-08-28T00:39:11.370Z,54.60
2018-08-28T00:41:38.594Z,54.20
2018-08-28T00:44:05.885Z,54.50
2018-08-28T00:46:33.111Z,54.70
2018-08-28T00:49:00.325Z,54.40
2018-08-28T00:51:27.574Z,54.40
2018-08-28T00:53:54.809Z,54.40
2018-08-28T00:56:22.185Z,54.50
2018-08-28T00:58:49.401Z,54.30
2018-08-28T01:01:16.634Z,54.40
2018-08-28T01:03:43.843Z,54.30
2018-08-28T01:06:11.083Z,54.20
2018-08-28T01:08:38.321Z,54.50
2018-08-28T01:11:06.047Z,54.40
2018-08-28T01:13:33.253Z,54.30
2018-08-28T01:16:00.495Z,54.50
2018-08-28T01:18:27.691Z,54.40
2018-08-28T01:20:54.935Z,54.60
2018-08-28T01:23:22.172Z,54.60
2018-08-28T01:25:49.435Z,54.50
2018-08-28T01:28:16.707Z,54.70
2018-08-28T01:30:43.935Z,54.60
2018-08-28T01:33:11.171Z,54.70
2018-08-28T01:35:38.405Z,54.70
2018-08-28T01:38:05.663Z,54.90
2018-08-28T01:40:32.890Z,54.80
2018-08-28T01:43:00.382Z,54.80
2018-08-28T01:45:27.646Z,54.70
2018-08-28T01:47:54.877Z,54.80
2018-08-28T01:50:22.193Z,54.80
2018-08-28T01:52:49.387Z,54.80
2018-08-28T01:55:16.623Z,54.70
2018-08-28T01:57:43.892Z,54.60
2018-08-28T02:00:11.124Z,54.70
2018-08-28T02:02:38.523Z,54.70
2018-08-28T02:05:05.802Z,54.80
2018-08-28T02:07:33.054Z,54.60
2018-08-28T02:10:00.281Z,54.70
2018-08-28T02:12:27.485Z,55.00
2018-08-28T02:14:54.694Z,54.80
2018-08-28T02:17:21.939Z,55.00
2018-08-28T02:19:49.166Z,55.50
2018-08-28T02:22:16.403Z,54.80
2018-08-28T02:24:43.637Z,54.90
2018-08-28T02:27:10.866Z,55.00
2018-08-28T02:29:38.090Z,54.80
2018-08-28T02:32:05.306Z,55.00
2018-08-28T02:34:32.536Z,54.90
2018-08-28T02:36:59.737Z,54.90
2018-08-28T02:39:26.977Z,55.00
2018-08-28T02:41:54.185Z,55.00
2018-08-28T02:44:21.424Z,55.00
2018-08-28T02:46:48.666Z,54.90
2018-08-28T02:49:15.882Z,54.90
2018-08-28T02:51:43.099Z,55.20
2018-08-28T02:54:10.367Z,55.00
2018-08-28T02:56:37.594Z,55.00
2018-08-28T02:59:05.594Z,55.00
2018-08-28T03:01:32.793Z,55.00
2018-08-28T03:04:00.046Z,55.00
2018-08-28T03:06:27.262Z,55.00
2018-08-28T03:08:54.498Z,55.00
2018-08-28T03:11:21.731Z,55.10
2018-08-28T03:13:48.978Z,55.00
2018-08-28T03:16:16.243Z,55.00
2018-08-28T03:18:43.484Z,55.10
2018-08-28T03:21:10.727Z,55.10
2018-08-28T03:23:38.413Z,54.90
2018-08-28T03:26:05.802Z,54.90
2018-08-28T03:28:33.023Z,55.20
2018-08-28T03:31:00.256Z,54.80
2018-08-28T03:33:27.461Z,55.10
2018-08-28T03:35:54.677Z,55.10
2018-08-28T03:38:21.921Z,55.00
2018-08-28T03:40:49.300Z,54.90
2018-08-28T03:43:16.736Z,55.20
2018-08-28T03:45:43.953Z,55.00
2018-08-28T03:48:11.181Z,55.00
2018-08-28T03:50:38.407Z,55.00
2018-08-28T03:53:05.664Z,55.00
2018-08-28T03:55:32.933Z,55.10
2018-08-28T03:58:00.107Z,54.90
2018-08-28T04:00:27.329Z,55.00
2018-08-28T04:02:54.550Z,55.00
2018-08-28T04:05:21.756Z,55.00
2018-08-28T04:07:48.988Z,55.00
2018-08-28T04:10:16.199Z,55.20
2018-08-28T04:12:43.430Z,55.00
2018-08-28T04:15:10.659Z,54.90
2018-08-28T04:17:43.276Z,55.00
2018-08-28T04:20:10.499Z,54.90
2018-08-28T04:22:37.737Z,55.00
2018-08-28T04:25:04.996Z,55.00
2018-08-28T04:27:32.221Z,55.00
2018-08-28T04:29:59.441Z,54.90
2018-08-28T04:32:26.666Z,55.00
2018-08-28T04:34:53.890Z,55.00
2018-08-28T04:37:21.117Z,54.80
2018-08-28T04:39:48.355Z,55.00
2018-08-28T04:42:15.607Z,54.90
2018-08-28T04:44:42.829Z,54.90
2018-08-28T04:47:10.107Z,55.10
2018-08-28T04:49:37.321Z,55.00
2018-08-28T04:52:04.918Z,55.00
2018-08-28T04:54:32.169Z,55.10
2018-08-28T04:56:59.403Z,55.00
2018-08-28T04:59:26.689Z,55.20
2018-08-28T05:01:53.897Z,55.10
2018-08-28T05:04:21.121Z,55.10
2018-08-28T05:06:48.342Z,55.10
2018-08-28T05:09:15.571Z,55.10
2018-08-28T05:11:42.788Z,55.10
2018-08-28T05:14:10.018Z,55.20
2018-08-28T05:16:37.256Z,55.10
2018-08-28T05:19:04.521Z,55.10
2018-08-28T05:21:31.802Z,55.20
2018-08-28T05:23:59.029Z,55.20
2018-08-28T05:26:26.234Z,55.40
2018-08-28T05:28:53.437Z,55.40
2018-08-28T05:31:20.670Z,55.40
2018-08-28T05:33:47.891Z,55.20
2018-08-28T05:36:15.102Z,55.50
2018-08-28T05:38:42.314Z,55.60
2018-08-28T05:41:09.534Z,54.80
2018-08-28T05:43:37.249Z,55.10
2018-08-28T05:46:04.478Z,55.00
2018-08-28T05:48:31.681Z,55.40
2018-08-28T05:50:58.909Z,55.20
2018-08-28T05:53:26.131Z,55.00
2018-08-28T05:55:53.458Z,54.90
2018-08-28T05:58:20.619Z,54.70
2018-08-28T06:00:47.887Z,54.60
2018-08-28T06:03:15.209Z,54.50
2018-08-28T06:05:42.634Z,54.60
2018-08-28T06:08:09.883Z,54.60
2018-08-28T06:10:37.154Z,54.60
2018-08-28T06:13:04.473Z,54.80
2018-08-28T06:15:31.704Z,54.90
2018-08-28T06:17:58.897Z,55.30
2018-08-28T06:20:26.129Z,55.50
2018-08-28T06:22:53.366Z,55.60
2018-08-28T06:25:20.543Z,55.90
2018-08-28T06:27:47.783Z,56.10
2018-08-28T06:30:15.007Z,56.30
2018-08-28T06:32:42.230Z,56.40
2018-08-28T06:35:09.469Z,56.30
2018-08-28T06:37:36.695Z,56.30
2018-08-28T06:40:03.974Z,56.30
2018-08-28T06:42:31.229Z,56.10
2018-08-28T06:44:58.452Z,56.10
2018-08-28T06:47:25.774Z,56.00
2018-08-28T06:49:53.045Z,56.10
2018-08-28T06:52:20.259Z,56.10
2018-08-28T06:54:47.461Z,56.20
2018-08-28T06:57:14.745Z,56.30
2018-08-28T06:59:42.015Z,56.30
2018-08-28T07:02:09.218Z,56.30
2018-08-28T07:04:36.438Z,56.40
2018-08-28T07:07:03.722Z,56.40
2018-08-28T07:09:30.974Z,56.40
2018-08-28T07:11:58.259Z,56.40
2018-08-28T07:14:25.474Z,56.50
2018-08-28T07:16:52.707Z,56.70
2018-08-28T07:19:19.937Z,56.70
2018-08-28T07:21:47.171Z,56.80
2018-08-28T07:24:14.382Z,56.90
2018-08-28T07:26:41.621Z,56.90
2018-08-28T07:29:08.853Z,57.10
2018-08-28T07:31:36.116Z,57.20
2018-08-28T07:34:03.439Z,57.20
2018-08-28T07:36:30.667Z,57.30
2018-08-28T07:38:57.899Z,57.40
2018-08-28T07:41:25.120Z,57.50
2018-08-28T07:43:52.357Z,57.40
2018-08-28T07:46:19.586Z,57.60
2018-08-28T07:48:46.834Z,57.70
2018-08-28T07:51:14.074Z,57.70
2018-08-28T07:53:41.391Z,57.70
2018-08-28T07:56:08.561Z,57.60
2018-08-28T07:58:35.823Z,57.70
2018-08-28T08:01:03.098Z,57.80
2018-08-28T08:03:30.336Z,57.80
2018-08-28T08:05:57.561Z,57.80
2018-08-28T08:08:24.799Z,57.80
2018-08-28T08:10:52.546Z,57.80
2018-08-28T08:13:19.812Z,57.80
2018-08-28T08:15:47.255Z,57.80
2018-08-28T08:18:14.474Z,57.80
2018-08-28T08:20:41.714Z,57.90
2018-08-28T08:23:09.106Z,57.80
2018-08-28T08:25:36.323Z,57.80
2018-08-28T08:28:03.748Z,57.70
2018-08-28T08:30:30.866Z,57.60
2018-08-28T08:32:58.135Z,57.60
2018-08-28T08:35:25.400Z,57.60
2018-08-28T08:37:52.617Z,57.40
2018-08-28T08:40:19.854Z,57.40
2018-08-28T08:42:47.094Z,57.40
2018-08-28T08:45:14.305Z,57.30
2018-08-28T08:47:41.543Z,57.10
2018-08-28T08:50:09.077Z,57.00
2018-08-28T08:52:36.295Z,57.00
2018-08-28T08:55:04.039Z,57.00
2018-08-28T08:57:31.192Z,56.80
2018-08-28T08:59:58.369Z,56.70
2018-08-28T09:02:25.607Z,56.60
2018-08-28T09:04:52.854Z,56.60
2018-08-28T09:07:20.069Z,56.40
2018-08-28T09:09:47.293Z,56.30
2018-08-28T09:12:14.562Z,56.10
2018-08-28T09:14:41.789Z,55.80
2018-08-28T09:17:09.024Z,55.60
2018-08-28T09:19:36.267Z,55.30
2018-08-28T09:22:03.490Z,55.10
2018-08-28T09:24:30.711Z,55.10
2018-08-28T09:26:57.939Z,54.70
2018-08-28T09:29:25.171Z,54.40
2018-08-28T09:31:52.387Z,54.20
2018-08-28T09:34:19.604Z,54.10
2018-08-28T09:36:46.822Z,53.90
2018-08-28T09:39:14.062Z,53.80
2018-08-28T09:41:41.282Z,53.50
2018-08-28T09:44:08.498Z,53.20
2018-08-28T09:46:35.707Z,52.90
2018-08-28T09:49:02.942Z,52.80
2018-08-28T09:51:30.198Z,52.40
2018-08-28T09:53:57.427Z,52.10
2018-08-28T09:56:24.700Z,52.00
2018-08-28T09:58:51.905Z,51.50
2018-08-28T10:01:24.868Z,51.40
2018-08-28T10:03:52.102Z,51.10
2018-08-28T10:06:19.357Z,51.50
2018-08-28T10:08:46.627Z,50.70
2018-08-28T10:11:13.863Z,50.20
2018-08-28T10:13:41.094Z,50.10
2018-08-28T10:16:08.321Z,49.90
2018-08-28T10:18:35.537Z,49.70
2018-08-28T10:21:02.800Z,49.60
2018-08-28T10:23:30.043Z,48.70
2018-08-28T10:25:57.277Z,48.40
2018-08-28T10:28:24.503Z,47.90
2018-08-28T10:30:51.730Z,47.40
2018-08-28T10:33:18.961Z,47.20
2018-08-28T10:35:46.173Z,46.90
2018-08-28T10:38:13.521Z,46.80
2018-08-28T10:40:40.630Z,46.40
2018-08-28T10:43:07.853Z,46.50
2018-08-28T10:45:35.122Z,46.00
2018-08-28T10:48:02.352Z,45.60
2018-08-28T10:50:29.751Z,45.60
2018-08-28T10:52:57.113Z,45.20
2018-08-28T10:55:24.213Z,45.00
2018-08-28T10:57:51.433Z,44.80
2018-08-28T11:00:18.669Z,44.90
2018-08-28T11:02:45.913Z,44.90
2018-08-28T11:05:13.137Z,44.60
2018-08-28T11:07:40.357Z,44.70
2018-08-28T11:10:08.203Z,44.40
2018-08-28T11:12:35.428Z,44.10
2018-08-28T11:15:02.695Z,44.10
2018-08-28T11:17:29.913Z,43.80
2018-08-28T11:19:57.325Z,43.60
2018-08-28T11:22:25.006Z,43.50
2018-08-28T11:24:52.170Z,43.30
2018-08-28T11:27:19.405Z,43.10
2018-08-28T11:29:46.622Z,43.20
2018-08-28T11:32:13.845Z,43.10
2018-08-28T11:34:41.071Z,43.00
2018-08-28T11:37:08.299Z,42.60
2018-08-28T11:39:35.545Z,42.40
2018-08-28T11:42:02.834Z,42.00
2018-08-28T11:44:30.051Z,41.80
2018-08-28T11:46:57.316Z,41.80
2018-08-28T11:49:24.527Z,41.80
2018-08-28T11:51:51.869Z,41.60
2018-08-28T11:54:19.147Z,41.70
2018-08-28T11:56:46.410Z,41.50
2018-08-28T11:59:13.628Z,41.40
2018-08-28T12:01:40.983Z,41.30
2018-08-28T12:04:08.212Z,41.10
2018-08-28T12:06:35.565Z,40.80
2018-08-28T12:09:03.130Z,40.90
2018-08-28T12:11:30.354Z,40.70
2018-08-28T12:13:57.577Z,40.50
2018-08-28T12:16:24.808Z,40.50
2018-08-28T12:18:52.039Z,40.50
2018-08-28T12:21:19.263Z,40.40
2018-08-28T12:23:46.480Z,40.40
2018-08-28T12:26:13.722Z,40.20
2018-08-28T12:28:40.938Z,40.00
2018-08-28T12:31:08.191Z,39.90
2018-08-28T12:33:35.418Z,39.90
2018-08-28T12:36:02.649Z,39.80
2018-08-28T12:38:29.893Z,40.30
2018-08-28T12:40:57.118Z,39.50
2018-08-28T12:43:24.345Z,39.50
2018-08-28T12:45:51.706Z,39.50
2018-08-28T12:48:18.945Z,39.40
2018-08-28T12:50:46.170Z,39.30
2018-08-28T12:53:13.394Z,39.00
2018-08-28T12:55:40.634Z,38.90
2018-08-28T12:58:07.858Z,38.80
2018-08-28T13:00:35.159Z,38.80
2018-08-28T13:03:02.321Z,38.90
2018-08-28T13:05:29.542Z,39.00
2018-08-28T13:07:56.754Z,38.70
2018-08-28T13:10:24.137Z,38.80
2018-08-28T13:12:51.375Z,38.70
2018-08-28T13:15:18.676Z,38.40
2018-08-28T13:17:45.902Z,38.30
2018-08-28T13:20:13.144Z,38.40
2018-08-28T13:22:40.379Z,38.30
2018-08-28T13:25:08.462Z,38.10
2018-08-28T13:27:35.813Z,38.40
2018-08-28T13:30:03.415Z,38.30
2018-08-28T13:32:30.644Z,38.30
2018-08-28T13:34:57.882Z,38.30
2018-08-28T13:37:25.245Z,38.30
2018-08-28T13:39:52.489Z,38.10
2018-08-28T13:42:19.709Z,38.10
2018-08-28T13:44:46.934Z,37.90
2018-08-28T13:47:14.276Z,38.20
2018-08-28T13:49:41.402Z,38.20
2018-08-28T13:52:08.673Z,38.30
2018-08-28T13:54:35.904Z,38.10
2018-08-28T13:57:03.163Z,38.00
2018-08-28T13:59:30.402Z,37.90
2018-08-28T14:01:57.629Z,37.90
2018-08-28T14:04:24.858Z,38.00
2018-08-28T14:06:52.069Z,38.10
2018-08-28T14:09:19.315Z,37.90
2018-08-28T14:11:46.525Z,37.90
2018-08-28T14:14:13.758Z,37.80
2018-08-28T14:16:40.974Z,37.90
2018-08-28T14:19:08.431Z,37.90
2018-08-28T14:21:35.661Z,37.70
2018-08-28T14:24:02.946Z,37.80
2018-08-28T14:26:30.239Z,37.90
2018-08-28T14:28:57.480Z,37.80
2018-08-28T14:31:24.762Z,37.90
2018-08-28T14:33:51.989Z,38.00
2018-08-28T14:36:19.217Z,37.90
2018-08-28T14:38:46.451Z,37.90
2018-08-28T14:41:13.690Z,37.90
2018-08-28T14:43:40.977Z,37.80
2018-08-28T14:46:08.689Z,37.80
2018-08-28T14:48:36.101Z,37.80
2018-08-28T14:51:03.365Z,38.00
2018-08-28T14:53:30.623Z,38.00
2018-08-28T14:55:57.855Z,38.00
2018-08-28T14:58:25.086Z,37.70
2018-08-28T15:00:52.331Z,37.90
2018-08-28T15:03:19.574Z,37.60
2018-08-28T15:05:46.809Z,37.90
2018-08-28T15:08:14.033Z,38.00
2018-08-28T15:10:41.266Z,38.00
2018-08-28T15:13:08.498Z,38.00
2018-08-28T15:15:35.825Z,38.10
2018-08-28T15:18:03.070Z,38.00
2018-08-28T15:20:30.302Z,38.00
2018-08-28T15:22:57.578Z,37.90
2018-08-28T15:25:24.822Z,38.00
2018-08-28T15:27:52.041Z,38.10
2018-08-28T15:30:19.301Z,37.90
2018-08-28T15:32:46.639Z,37.80
2018-08-28T15:35:13.946Z,38.00
2018-08-28T15:37:41.178Z,38.00
2018-08-28T15:40:08.457Z,38.10
2018-08-28T15:42:35.699Z,38.00
2018-08-28T15:45:02.966Z,38.00
2018-08-28T15:47:30.181Z,38.00
2018-08-28T15:49:57.397Z,38.10
2018-08-28T15:52:24.626Z,38.10
2018-08-28T15:54:51.874Z,38.10
2018-08-28T15:57:19.116Z,38.00
2018-08-28T15:59:46.344Z,38.10
2018-08-28T16:02:13.607Z,38.20
2018-08-28T16:04:40.930Z,38.10
2018-08-28T16:07:08.147Z,38.10
2018-08-28T16:09:35.373Z,38.10
2018-08-28T16:12:02.606Z,38.10
2018-08-28T16:14:29.810Z,38.20
2018-08-28T16:16:57.041Z,38.30
2018-08-28T16:19:24.261Z,38.20
2018-08-28T16:21:53.513Z,37.80
2018-08-28T16:24:21.374Z,38.20
2018-08-28T16:26:48.610Z,37.80
2018-08-28T16:29:15.855Z,38.10
2018-08-28T16:31:43.078Z,38.50
2018-08-28T16:34:10.449Z,38.10
2018-08-28T16:36:38.002Z,38.20
2018-08-28T16:39:06.687Z,38.30
2018-08-28T16:41:34.259Z,38.30
2018-08-28T16:44:01.545Z,38.40
2018-08-28T16:46:28.806Z,38.30
2018-08-28T16:48:56.039Z,38.20
2018-08-28T16:51:23.277Z,38.30
2018-08-28T16:53:50.495Z,38.40
2018-08-28T16:56:17.961Z,38.50
2018-08-28T16:58:45.191Z,38.50
2018-08-28T17:01:13.349Z,38.30
2018-08-28T17:03:40.555Z,38.00
2018-08-28T17:06:07.777Z,38.40
2018-08-28T17:08:35.025Z,38.50
2018-08-28T17:11:02.246Z,38.70
2018-08-28T17:13:29.471Z,38.80
2018-08-28T17:15:56.705Z,38.80
2018-08-28T17:18:23.933Z,39.00
2018-08-28T17:20:51.181Z,39.30
2018-08-28T17:23:18.429Z,39.60
2018-08-28T17:25:45.683Z,39.90
2018-08-28T17:28:12.945Z,40.10
2018-08-28T17:30:40.176Z,40.40
2018-08-28T17:33:07.485Z,40.40
2018-08-28T17:35:34.666Z,40.60
2018-08-28T17:38:01.954Z,40.90
2018-08-28T17:40:29.174Z,40.90
2018-08-28T17:42:56.401Z,41.10
2018-08-28T17:45:23.658Z,41.30
2018-08-28T17:47:50.914Z,41.50
2018-08-28T17:50:18.130Z,41.60
2018-08-28T17:52:45.359Z,41.90
2018-08-28T17:55:12.590Z,42.00
2018-08-28T17:57:39.833Z,42.00
2018-08-28T18:00:07.374Z,42.10
2018-08-28T18:02:34.594Z,42.20
2018-08-28T18:05:01.838Z,42.40
2018-08-28T18:07:29.069Z,42.60
2018-08-28T18:09:56.281Z,42.70
2018-08-28T18:12:23.501Z,42.80
2018-08-28T18:14:50.748Z,42.80
2018-08-28T18:17:17.993Z,43.00
2018-08-28T18:19:45.277Z,43.10
2018-08-28T18:22:12.519Z,43.20
2018-08-28T18:24:39.735Z,43.20
2018-08-28T18:27:06.955Z,43.30
2018-08-28T18:29:34.174Z,43.50
2018-08-28T18:32:01.390Z,43.50
2018-08-28T18:34:28.680Z,44.20
2018-08-28T18:36:55.842Z,43.60
2018-08-28T18:39:23.071Z,44.30
2018-08-28T18:41:50.303Z,43.80
2018-08-28T18:44:17.537Z,43.90
2018-08-28T18:46:44.767Z,43.80
2018-08-28T18:49:12.021Z,44.00
2018-08-28T18:51:39.254Z,44.00
2018-08-28T18:54:06.489Z,44.10
2018-08-28T18:56:33.739Z,44.20
2018-08-28T18:59:01.117Z,44.30
2018-08-28T19:01:28.357Z,44.30
2018-08-28T19:03:55.573Z,44.50
2018-08-28T19:06:22.788Z,44.40
2018-08-28T19:08:50.271Z,44.50
2018-08-28T19:11:17.459Z,44.60
2018-08-28T19:13:45.205Z,44.60
2018-08-28T19:16:12.426Z,44.70
2018-08-28T19:18:39.669Z,45.40
2018-08-28T19:21:06.890Z,44.90
2018-08-28T19:23:34.126Z,44.90
2018-08-28T19:26:01.373Z,45.00
2018-08-28T19:28:28.594Z,45.00
2018-08-28T19:30:55.796Z,45.10
2018-08-28T19:33:23.032Z,45.10
2018-08-28T19:35:50.453Z,45.20
2018-08-28T19:38:17.682Z,45.30
2018-08-28T19:40:44.901Z,45.50
2018-08-28T19:43:12.162Z,45.30
2018-08-28T19:45:39.685Z,45.40
2018-08-28T19:48:06.909Z,45.40
2018-08-28T19:50:34.142Z,45.70
2018-08-28T19:53:01.545Z,45.70
2018-08-28T19:55:28.769Z,45.70
2018-08-28T19:57:56.010Z,45.80
2018-08-28T20:00:23.268Z,46.00
2018-08-28T20:02:50.478Z,45.80
2018-08-28T20:05:17.715Z,46.00
2018-08-28T20:07:44.955Z,45.90
2018-08-28T20:10:12.224Z,45.90
2018-08-28T20:12:39.445Z,46.10
2018-08-28T20:15:06.722Z,46.10
2018-08-28T20:17:33.968Z,46.20
2018-08-28T20:20:01.198Z,46.10
2018-08-28T20:22:28.445Z,46.30
2018-08-28T20:24:55.673Z,46.30
2018-08-28T20:27:22.918Z,46.30
2018-08-28T20:29:50.173Z,46.40
2018-08-28T20:32:17.393Z,46.50
2018-08-28T20:34:44.605Z,46.40
2018-08-28T20:37:11.836Z,46.50
2018-08-28T20:39:39.103Z,46.70
2018-08-28T20:42:06.346Z,46.80
2018-08-28T20:44:33.592Z,47.30
2018-08-28T20:47:00.810Z,46.80
2018-08-28T20:49:28.038Z,46.90
2018-08-28T20:51:55.285Z,46.80
2018-08-28T20:54:22.570Z,47.00
2018-08-28T20:56:49.795Z,47.00
2018-08-28T20:59:17.022Z,47.00
2018-08-28T21:01:44.234Z,47.00
2018-08-28T21:04:11.461Z,47.10
2018-08-28T21:06:38.740Z,47.10
2018-08-28T21:09:06.454Z,47.30
2018-08-28T21:11:33.816Z,47.30
2018-08-28T21:14:01.158Z,47.20
2018-08-28T21:16:28.414Z,47.30
2018-08-28T21:18:55.642Z,47.30
2018-08-28T21:21:22.869Z,47.50
2018-08-28T21:23:50.095Z,47.50
2018-08-28T21:26:17.329Z,47.40
2018-08-28T21:28:44.578Z,47.70
2018-08-28T21:31:11.794Z,47.50
2018-08-28T21:33:39.023Z,47.70
2018-08-28T21:36:06.302Z,47.60
2018-08-28T21:38:33.542Z,47.60
2018-08-28T21:41:00.777Z,47.80
2018-08-28T21:43:28.022Z,47.70
2018-08-28T21:45:55.518Z,47.80
2018-08-28T21:48:22.811Z,47.80
2018-08-28T21:50:49.983Z,47.90
2018-08-28T21:53:17.210Z,47.80
2018-08-28T21:55:44.457Z,47.70
2018-08-28T21:58:11.695Z,48.00
2018-08-28T22:00:38.969Z,47.90
2018-08-28T22:03:06.270Z,47.90
2018-08-28T22:05:33.506Z,47.80
2018-08-28T22:08:02.211Z,48.00
2018-08-28T22:10:30.019Z,48.00
2018-08-28T22:12:57.289Z,48.00
2018-08-28T22:15:24.516Z,48.20
2018-08-28T22:17:51.947Z,48.10
2018-08-28T22:20:19.185Z,48.70
2018-08-28T22:22:46.674Z,48.40
2018-08-28T22:25:13.993Z,48.30
2018-08-28T22:27:41.202Z,48.30
2018-08-28T22:30:09.125Z,48.30
2018-08-28T22:32:36.330Z,48.40
2018-08-28T22:35:03.725Z,48.80
2018-08-28T22:37:30.953Z,48.40
2018-08-28T22:39:58.141Z,48.30
2018-08-28T22:42:25.325Z,48.30
2018-08-28T22:44:52.497Z,48.30
2018-08-28T22:47:19.701Z,48.40
2018-08-28T22:49:46.889Z,48.70
2018-08-28T22:52:14.090Z,48.60
2018-08-28T22:54:41.434Z,48.50
2018-08-28T22:57:08.659Z,48.60
2018-08-28T22:59:35.833Z,48.80
2018-08-28T23:02:03.293Z,48.60
2018-08-28T23:04:30.501Z,48.60
2018-08-28T23:06:57.693Z,48.70
2018-08-28T23:09:24.886Z,48.50
2018-08-28T23:11:52.105Z,48.50
2018-08-28T23:14:19.312Z,48.70
2018-08-28T23:16:46.514Z,48.70
2018-08-28T23:19:13.734Z,48.90
2018-08-28T23:21:40.950Z,48.80
2018-08-28T23:24:08.153Z,48.90
2018-08-28T23:26:35.350Z,48.80
2018-08-28T23:29:02.594Z,48.80
2018-08-28T23:31:29.778Z,48.90
2018-08-28T23:33:56.986Z,48.90
2018-08-28T23:36:24.181Z,49.10
2018-08-28T23:38:51.382Z,49.00
2018-08-28T23:41:18.557Z,48.90
2018-08-28T23:43:45.803Z,49.00
2018-08-28T23:46:12.997Z,48.90
2018-08-28T23:48:40.197Z,49.00
2018-08-28T23:51:07.387Z,49.00
2018-08-28T23:53:34.609Z,49.00
2018-08-28T23:56:01.823Z,49.00
2018-08-28T23:58:29.017Z,49.10
